Time;durP1;ratioP1;P1;durP2;ratioP2;P2;SDS_P1;SDS_P2;PMS_P1;PMS_P2;Temp;Humidity;BMP_temperature;BMP_pressure;BME280_temperature;BME280_humidity;BME280_pressure;Samples;Min_cycle;Max_cycle;Signal;HPM_P1;HPM_P2
2022/02/23 00:01:46;;;;;;;12.48;2.22;;;7.70;99.90;;;;;;5189701;22;20012;-73
2022/02/23 00:03:47;;;;;;;16.77;3.35;;;7.70;99.90;;;;;;5191435;22;20014;-73
2022/02/23 00:05:47;;;;;;;12.57;2.95;;;7.60;99.90;;;;;;5190594;22;20035;-74
2022/02/23 00:07:48;;;;;;;9.10;2.30;;;7.60;99.90;;;;;;5162556;23;20004;-74
2022/02/23 00:09:48;;;;;;;12.60;3.10;;;7.60;99.90;;;;;;5190709;22;20041;-74
2022/02/23 00:11:49;;;;;;;22.52;4.00;;;7.60;99.90;;;;;;5161866;23;20004;-74
2022/02/23 00:13:50;;;;;;;11.50;2.58;;;7.60;99.90;;;;;;5163188;23;20449;-73
2022/02/23 00:15:50;;;;;;;9.35;2.85;;;7.60;99.90;;;;;;5189546;22;20011;-74
2022/02/23 00:17:51;;;;;;;14.70;2.97;;;7.60;99.90;;;;;;5162781;23;20083;-74
2022/02/23 00:19:55;;;;;;;12.52;2.97;;;7.60;99.90;;;;;;5162469;23;20540;-74
2022/02/23 00:21:56;;;;;;;11.57;2.40;;;7.60;99.90;;;;;;5162049;23;20015;-73
2022/02/23 00:23:57;;;;;;;14.90;3.30;;;7.60;99.90;;;;;;5189938;22;20042;-73
2022/02/23 00:25:58;;;;;;;18.42;2.97;;;7.60;99.90;;;;;;5189398;22;20025;-74
2022/02/23 00:27:58;;;;;;;11.57;2.92;;;7.50;99.90;;;;;;5190161;22;20011;-74
2022/02/23 00:29:59;;;;;;;15.13;2.95;;;7.50;99.90;;;;;;5189715;22;20066;-74
2022/02/23 00:31:59;;;;;;;10.48;3.17;;;7.60;99.90;;;;;;5188979;22;20069;-74
2022/02/23 00:34:00;;;;;;;12.88;2.83;;;7.60;99.90;;;;;;5162978;23;20041;-73
2022/02/23 00:36:01;;;;;;;10.45;2.63;;;7.50;99.90;;;;;;5188936;22;20015;-74
2022/02/23 00:38:02;;;;;;;12.40;2.88;;;7.50;99.90;;;;;;5189775;22;20052;-73
2022/02/23 00:40:04;;;;;;;16.50;3.80;;;7.50;99.90;;;;;;5189483;22;20008;-74
2022/02/23 00:42:04;;;;;;;10.02;2.50;;;7.50;99.90;;;;;;5162210;23;20012;-74
2022/02/23 00:44:06;;;;;;;14.00;3.00;;;7.40;99.90;;;;;;5189032;22;20519;-74
2022/02/23 00:46:06;;;;;;;9.43;2.40;;;7.40;99.90;;;;;;5136039;23;20009;-73
2022/02/23 00:48:07;;;;;;;7.18;2.00;;;7.40;99.90;;;;;;5162349;23;20083;-74
2022/02/23 00:50:08;;;;;;;11.60;2.70;;;7.40;99.90;;;;;;5161694;23;20015;-73
2022/02/23 00:52:09;;;;;;;15.25;3.28;;;7.30;99.90;;;;;;5189175;22;20008;-73
2022/02/23 00:54:09;;;;;;;12.13;2.90;;;7.30;99.90;;;;;;5189297;22;20019;-74
2022/02/23 00:56:10;;;;;;;11.27;2.55;;;7.30;99.90;;;;;;5188561;22;20007;-74
2022/02/23 00:58:10;;;;;;;17.45;3.03;;;7.30;99.90;;;;;;5188494;22;20345;-74
2022/02/23 01:00:11;;;;;;;14.40;2.75;;;7.30;99.90;;;;;;5160404;23;20004;-73
2022/02/23 01:02:12;;;;;;;11.55;2.38;;;7.30;99.90;;;;;;5190720;22;20126;-73
2022/02/23 01:04:12;;;;;;;9.25;1.98;;;7.30;99.90;;;;;;5161796;23;20008;-73
2022/02/23 01:06:14;;;;;;;16.30;2.42;;;7.30;99.90;;;;;;5188933;22;20034;-74
2022/02/23 01:08:14;;;;;;;15.40;3.20;;;7.40;99.90;;;;;;5189710;22;20390;-74
2022/02/23 01:10:15;;;;;;;10.98;2.60;;;7.30;99.90;;;;;;5161227;23;20008;-74
2022/02/23 01:12:15;;;;;;;14.55;2.75;;;7.30;99.90;;;;;;5187526;22;20014;-73
2022/02/23 01:14:16;;;;;;;9.88;2.55;;;7.30;99.90;;;;;;5190282;22;20026;-74
2022/02/23 01:16:18;;;;;;;11.85;2.53;;;7.30;99.90;;;;;;5189601;22;20016;-73
2022/02/23 01:18:19;;;;;;;13.60;3.00;;;7.30;99.90;;;;;;5189991;22;20020;-73
2022/02/23 01:20:19;;;;;;;16.20;3.22;;;7.20;99.90;;;;;;5190011;22;20046;-73
2022/02/23 01:22:20;;;;;;;12.23;2.80;;;7.30;99.90;;;;;;5162247;23;20700;-74
2022/02/23 01:24:22;;;;;;;12.65;3.20;;;7.20;99.90;;;;;;5162301;23;20020;-74
2022/02/23 01:26:22;;;;;;;16.67;3.17;;;7.20;99.90;;;;;;5189086;22;20456;-73
2022/02/23 01:28:23;;;;;;;12.77;2.90;;;7.20;99.90;;;;;;5189785;22;20016;-74
2022/02/23 01:30:23;;;;;;;12.38;2.75;;;7.20;99.90;;;;;;5189461;22;20023;-74
2022/02/23 01:32:25;;;;;;;9.38;2.67;;;7.20;99.90;;;;;;5189885;22;20022;-74
2022/02/23 01:34:25;;;;;;;9.18;2.35;;;7.20;99.90;;;;;;5161711;23;20087;-74
2022/02/23 01:36:26;;;;;;;10.57;2.65;;;7.20;99.90;;;;;;5189121;22;20437;-74
2022/02/23 01:38:27;;;;;;;14.30;2.95;;;7.20;99.90;;;;;;5190492;22;20015;-73
2022/02/23 01:40:28;;;;;;;10.18;2.85;;;7.20;99.90;;;;;;5189344;22;20380;-74
2022/02/23 01:42:29;;;;;;;8.52;2.00;;;7.20;99.90;;;;;;5162445;23;20016;-74
2022/02/23 01:44:29;;;;;;;10.88;2.40;;;7.20;99.90;;;;;;5189071;22;20023;-74
2022/02/23 01:46:30;;;;;;;10.68;2.75;;;7.20;99.90;;;;;;5189294;22;20042;-73
2022/02/23 01:48:31;;;;;;;11.95;2.47;;;7.20;99.90;;;;;;5189415;22;20020;-74
2022/02/23 01:50:32;;;;;;;24.08;3.63;;;7.10;99.90;;;;;;5161747;23;20008;-73
2022/02/23 01:52:33;;;;;;;13.20;2.85;;;7.10;99.90;;;;;;5188648;22;20026;-73
2022/02/23 01:54:33;;;;;;;12.95;2.88;;;7.10;99.90;;;;;;5188883;22;20065;-73
2022/02/23 01:56:34;;;;;;;10.40;3.25;;;7.10;99.90;;;;;;5188290;22;20003;-74
2022/02/23 01:58:34;;;;;;;13.18;2.63;;;7.10;99.90;;;;;;5188302;22;20011;-74
2022/02/23 02:00:35;;;;;;;14.30;2.78;;;7.10;99.90;;;;;;5161655;23;20357;-74
2022/02/23 02:02:36;;;;;;;7.57;2.30;;;7.10;99.90;;;;;;5188267;22;20433;-74
2022/02/23 02:04:37;;;;;;;8.38;2.10;;;7.10;99.90;;;;;;5162245;23;20012;-74
2022/02/23 02:06:38;;;;;;;9.18;2.40;;;7.10;99.90;;;;;;5188072;22;20345;-74
2022/02/23 02:08:38;;;;;;;9.18;2.28;;;7.10;99.90;;;;;;5161647;23;20449;-74
2022/02/23 02:10:39;;;;;;;9.65;2.15;;;7.00;99.90;;;;;;5187802;22;20026;-74
2022/02/23 02:12:41;;;;;;;15.70;2.58;;;7.00;99.90;;;;;;5188649;22;20014;-74
2022/02/23 02:14:41;;;;;;;15.05;2.90;;;7.00;99.90;;;;;;5161431;23;20083;-74
2022/02/23 02:16:42;;;;;;;10.40;2.63;;;7.00;99.90;;;;;;5160776;23;20377;-75
2022/02/23 02:18:42;;;;;;;10.93;2.72;;;7.00;99.90;;;;;;5190165;22;20023;-74
2022/02/23 02:20:43;;;;;;;10.45;2.50;;;7.00;99.90;;;;;;5189350;22;20008;-74
2022/02/23 02:22:44;;;;;;;12.30;2.97;;;7.00;99.90;;;;;;5190180;22;20027;-74
2022/02/23 02:24:44;;;;;;;9.90;2.00;;;7.00;99.90;;;;;;5190470;22;20012;-74
2022/02/23 02:26:45;;;;;;;9.25;2.45;;;7.00;99.90;;;;;;5189404;22;20506;-74
2022/02/23 02:28:45;;;;;;;12.35;2.72;;;7.00;99.90;;;;;;5161292;23;20326;-74
2022/02/23 02:30:46;;;;;;;10.70;2.40;;;7.00;99.90;;;;;;5160940;23;20004;-74
2022/02/23 02:32:47;;;;;;;11.38;2.60;;;6.90;99.90;;;;;;5189890;22;20012;-74
2022/02/23 02:34:49;;;;;;;15.38;3.00;;;6.90;99.90;;;;;;5189797;22;20015;-74
2022/02/23 02:36:50;;;;;;;12.20;3.00;;;6.90;99.90;;;;;;5188896;22;20008;-74
2022/02/23 02:38:51;;;;;;;14.23;2.15;;;6.90;99.90;;;;;;5189473;22;20012;-74
2022/02/23 02:40:52;;;;;;;10.45;2.55;;;6.90;99.90;;;;;;5188997;22;20087;-74
2022/02/23 02:42:53;;;;;;;13.70;2.72;;;6.90;99.90;;;;;;5189965;22;20019;-74
2022/02/23 02:44:54;;;;;;;9.20;2.23;;;6.90;99.90;;;;;;5161831;23;20024;-74
2022/02/23 02:46:55;;;;;;;11.40;2.90;;;6.80;99.90;;;;;;5188355;22;20238;-74
2022/02/23 02:48:55;;;;;;;13.63;2.72;;;6.80;99.90;;;;;;5189223;22;20012;-74
2022/02/23 02:50:56;;;;;;;13.00;2.47;;;6.80;99.90;;;;;;5188665;22;20004;-74
2022/02/23 02:52:57;;;;;;;12.25;2.70;;;6.80;99.90;;;;;;5187112;22;20020;-74
2022/02/23 02:54:58;;;;;;;7.28;2.20;;;6.80;99.90;;;;;;5189498;22;20003;-74
2022/02/23 02:56:59;;;;;;;13.15;2.60;;;6.80;99.90;;;;;;5160871;23;20008;-74
2022/02/23 02:59:01;;;;;;;12.60;2.55;;;6.80;99.90;;;;;;5188887;22;20022;-74
2022/02/23 03:01:02;;;;;;;20.40;3.27;;;6.80;99.90;;;;;;5160980;23;20020;-74
2022/02/23 03:03:03;;;;;;;10.00;2.67;;;6.70;99.90;;;;;;5188832;22;20090;-74
2022/02/23 03:05:04;;;;;;;14.73;2.63;;;6.70;99.90;;;;;;5188655;22;20023;-74
2022/02/23 03:07:05;;;;;;;12.82;2.90;;;6.70;99.90;;;;;;5187833;22;20437;-74
2022/02/23 03:09:06;;;;;;;11.02;2.67;;;6.70;99.90;;;;;;5188835;22;20012;-74
2022/02/23 03:11:07;;;;;;;9.07;2.10;;;6.70;99.90;;;;;;5189051;22;20032;-74
2022/02/23 03:13:08;;;;;;;10.90;2.33;;;6.70;99.90;;;;;;5138367;23;20016;-74
2022/02/23 03:15:09;;;;;;;9.75;2.30;;;6.70;99.90;;;;;;5162499;23;20079;-74
2022/02/23 03:17:09;;;;;;;14.80;3.70;;;6.70;99.90;;;;;;5162950;23;20008;-74
2022/02/23 03:19:11;;;;;;;12.07;3.00;;;6.70;99.90;;;;;;5189897;22;20008;-74
2022/02/23 03:21:12;;;;;;;14.90;2.80;;;6.70;99.90;;;;;;5161984;23;20008;-74
2022/02/23 03:23:12;;;;;;;10.30;3.17;;;6.70;99.90;;;;;;5191321;22;20012;-74
2022/02/23 03:25:13;;;;;;;11.95;2.30;;;6.70;99.90;;;;;;5190840;22;20011;-74
2022/02/23 03:27:13;;;;;;;11.40;3.05;;;6.70;99.90;;;;;;5191195;22;20012;-74
2022/02/23 03:29:14;;;;;;;10.90;3.13;;;6.60;99.90;;;;;;5191522;22;20011;-74
2022/02/23 03:31:15;;;;;;;10.63;2.28;;;6.60;99.90;;;;;;5162261;23;20008;-73
2022/02/23 03:33:16;;;;;;;10.95;3.30;;;6.70;99.90;;;;;;5191432;22;20468;-74
2022/02/23 03:35:16;;;;;;;15.48;2.95;;;6.60;99.90;;;;;;5162518;23;20020;-74
2022/02/23 03:37:17;;;;;;;11.50;2.60;;;6.60;99.90;;;;;;5163232;23;20016;-74
2022/02/23 03:39:17;;;;;;;15.15;3.13;;;6.60;99.90;;;;;;5190904;22;20469;-74
2022/02/23 03:41:18;;;;;;;14.07;2.47;;;6.60;99.90;;;;;;5190588;22;20015;-74
2022/02/23 03:43:19;;;;;;;9.48;2.22;;;6.60;99.90;;;;;;5191200;22;20349;-73
2022/02/23 03:45:19;;;;;;;11.40;3.00;;;6.60;99.90;;;;;;5190257;22;20028;-73
2022/02/23 03:47:20;;;;;;;13.02;2.88;;;6.50;99.90;;;;;;5188539;22;20038;-74
2022/02/23 03:49:21;;;;;;;12.48;3.05;;;6.60;99.90;;;;;;5190942;22;20023;-74
2022/02/23 03:51:21;;;;;;;11.43;2.50;;;6.60;99.90;;;;;;5190195;22;20026;-74
2022/02/23 03:53:22;;;;;;;11.73;2.35;;;6.60;99.90;;;;;;5190903;22;20439;-74
2022/02/23 03:55:22;;;;;;;12.85;2.40;;;6.60;99.90;;;;;;5187423;22;20389;-74
2022/02/23 03:57:23;;;;;;;10.35;2.35;;;6.50;99.90;;;;;;5162919;23;20032;-73
2022/02/23 03:59:25;;;;;;;9.70;2.30;;;6.50;99.90;;;;;;5190989;22;20430;-74
2022/02/23 04:01:25;;;;;;;10.82;2.58;;;6.60;99.90;;;;;;5189949;22;20079;-74
2022/02/23 04:03:26;;;;;;;12.93;3.03;;;6.50;99.90;;;;;;5190786;22;20003;-74
2022/02/23 04:05:27;;;;;;;14.98;2.83;;;6.50;99.90;;;;;;5162503;23;20075;-74
2022/02/23 04:07:27;;;;;;;14.25;3.05;;;6.50;99.90;;;;;;5190280;22;20011;-74
2022/02/23 04:09:28;;;;;;;8.85;2.75;;;6.50;99.90;;;;;;5190502;22;20069;-73
2022/02/23 04:11:29;;;;;;;18.55;3.17;;;6.50;99.90;;;;;;5189726;22;20311;-74
2022/02/23 04:13:30;;;;;;;10.80;2.55;;;6.40;99.90;;;;;;5190726;22;20007;-73
2022/02/23 04:15:31;;;;;;;7.07;1.95;;;6.40;99.90;;;;;;5189320;22;20011;-74
2022/02/23 04:17:31;;;;;;;9.27;2.53;;;6.50;99.90;;;;;;5162922;23;20012;-73
2022/02/23 04:19:32;;;;;;;11.98;2.47;;;6.50;99.90;;;;;;5162534;23;20421;-73
2022/02/23 04:21:33;;;;;;;8.93;2.10;;;6.50;99.90;;;;;;5189620;22;20031;-74
2022/02/23 04:23:33;;;;;;;11.43;2.58;;;6.40;99.90;;;;;;5162563;23;20346;-73
2022/02/23 04:25:34;;;;;;;11.93;2.75;;;6.40;99.90;;;;;;5188888;22;20007;-74
2022/02/23 04:27:35;;;;;;;14.35;2.65;;;6.40;99.90;;;;;;5162588;23;20079;-74
2022/02/23 04:29:35;;;;;;;12.50;2.30;;;6.40;99.90;;;;;;5189481;22;20004;-74
2022/02/23 04:31:36;;;;;;;15.25;3.17;;;6.40;99.90;;;;;;5162085;23;20004;-73
2022/02/23 04:33:37;;;;;;;14.80;2.53;;;6.40;99.90;;;;;;5189451;22;20012;-74
2022/02/23 04:35:38;;;;;;;11.13;2.85;;;6.40;99.90;;;;;;5161693;23;20003;-74
2022/02/23 04:37:39;;;;;;;12.93;2.90;;;6.40;99.90;;;;;;5189695;22;20341;-74
2022/02/23 04:39:39;;;;;;;10.60;2.70;;;6.40;99.90;;;;;;5190183;22;20004;-74
2022/02/23 04:41:40;;;;;;;14.50;2.78;;;6.30;99.90;;;;;;5188851;22;20433;-73
2022/02/23 04:43:41;;;;;;;15.70;3.08;;;6.30;99.90;;;;;;5162304;23;20008;-74
2022/02/23 04:45:42;;;;;;;10.25;2.83;;;6.30;99.90;;;;;;5188850;22;20307;-74
2022/02/23 04:47:42;;;;;;;7.32;2.17;;;6.30;99.90;;;;;;5189391;22;19999;-74
2022/02/23 04:49:43;;;;;;;11.13;2.30;;;6.20;99.90;;;;;;5188929;22;20456;-74
2022/02/23 04:51:43;;;;;;;12.23;2.65;;;6.30;99.90;;;;;;5190371;22;20314;-74
2022/02/23 04:53:44;;;;;;;11.20;2.60;;;6.20;99.90;;;;;;5190973;22;20345;-74
2022/02/23 04:55:45;;;;;;;9.90;2.58;;;6.30;99.90;;;;;;5190464;22;20388;-73
2022/02/23 04:57:46;;;;;;;8.43;2.00;;;6.20;99.90;;;;;;5190741;22;20501;-74
2022/02/23 04:59:46;;;;;;;8.55;2.10;;;6.30;99.90;;;;;;5190910;22;20012;-73
2022/02/23 05:01:47;;;;;;;12.65;2.70;;;6.30;99.90;;;;;;5188707;22;20468;-74
2022/02/23 05:03:47;;;;;;;10.85;2.70;;;6.30;99.90;;;;;;5190000;22;20012;-74
2022/02/23 05:05:49;;;;;;;15.80;2.53;;;6.30;99.90;;;;;;5189847;22;20453;-74
2022/02/23 05:07:50;;;;;;;12.85;2.72;;;6.30;99.90;;;;;;5190552;22;20019;-73
2022/02/23 05:09:51;;;;;;;12.93;2.58;;;6.20;99.90;;;;;;5190416;22;20008;-74
2022/02/23 05:11:51;;;;;;;12.07;2.35;;;6.20;99.90;;;;;;5189719;22;20014;-73
2022/02/23 05:13:52;;;;;;;9.02;2.47;;;6.30;99.90;;;;;;5190629;22;20361;-73
2022/02/23 05:15:56;;;;;;;10.93;2.65;;;6.20;99.90;;;;;;5188767;22;20031;-74
2022/02/23 05:17:57;;;;;;;10.68;2.50;;;6.20;99.90;;;;;;5162004;23;20052;-74
2022/02/23 05:19:57;;;;;;;10.98;2.58;;;6.20;99.90;;;;;;5189210;22;20012;-73
2022/02/23 05:21:58;;;;;;;12.40;2.53;;;6.20;99.90;;;;;;5159872;23;20012;-74
2022/02/23 05:23:59;;;;;;;11.80;2.80;;;6.20;99.90;;;;;;5188025;22;20473;-74
2022/02/23 05:26:00;;;;;;;9.25;2.45;;;6.10;99.90;;;;;;5187244;22;20023;-73
2022/02/23 05:28:00;;;;;;;7.15;2.13;;;6.20;99.90;;;;;;5188117;22;20018;-74
2022/02/23 05:30:01;;;;;;;8.57;2.60;;;6.10;99.90;;;;;;5187925;22;20003;-74
2022/02/23 05:32:02;;;;;;;6.43;1.90;;;6.10;99.90;;;;;;5159452;23;20012;-74
2022/02/23 05:34:02;;;;;;;9.05;2.45;;;6.10;99.90;;;;;;5160109;23;20044;-74
2022/02/23 05:36:03;;;;;;;7.15;2.25;;;6.20;99.90;;;;;;5186424;22;20043;-74
2022/02/23 05:38:04;;;;;;;11.25;2.35;;;6.20;99.90;;;;;;5160381;23;20008;-73
2022/02/23 05:40:06;;;;;;;12.02;2.17;;;6.20;99.90;;;;;;5159422;23;20413;-73
2022/02/23 05:42:07;;;;;;;14.85;2.70;;;6.20;99.90;;;;;;5187096;22;20004;-74
2022/02/23 05:44:08;;;;;;;5.32;1.90;;;6.20;99.90;;;;;;5186379;22;20410;-74
2022/02/23 05:46:08;;;;;;;7.93;2.42;;;6.20;99.90;;;;;;5159018;23;20491;-75
2022/02/23 05:48:09;;;;;;;10.77;2.80;;;6.20;99.90;;;;;;5186883;22;20019;-74
2022/02/23 05:50:10;;;;;;;10.70;2.50;;;6.20;99.90;;;;;;5187041;22;20078;-74
2022/02/23 05:52:13;;;;;;;8.35;1.90;;;6.20;99.90;;;;;;5187476;22;20011;-74
2022/02/23 05:54:15;;;;;;;7.88;2.33;;;6.20;99.90;;;;;;5160107;23;20438;-74
2022/02/23 05:56:16;;;;;;;9.00;2.28;;;6.10;99.90;;;;;;5159888;23;20377;-74
2022/02/23 05:58:16;;;;;;;7.05;2.25;;;6.10;99.90;;;;;;5188890;22;20043;-75
2022/02/23 06:00:17;;;;;;;5.75;2.20;;;6.20;99.90;;;;;;5187880;22;20057;-74
2022/02/23 06:02:18;;;;;;;10.07;2.58;;;6.20;99.90;;;;;;5188615;22;20019;-74
2022/02/23 06:04:19;;;;;;;10.23;2.42;;;6.20;99.90;;;;;;5188723;22;20428;-74
2022/02/23 06:06:19;;;;;;;6.43;1.92;;;6.20;99.90;;;;;;5159451;23;20019;-74
2022/02/23 06:08:20;;;;;;;10.15;2.70;;;6.20;99.90;;;;;;5187921;22;20026;-74
2022/02/23 06:10:24;;;;;;;7.70;2.15;;;6.20;99.90;;;;;;5187907;22;20042;-74
2022/02/23 06:12:25;;;;;;;7.72;2.47;;;6.20;99.90;;;;;;5188372;22;20022;-74
2022/02/23 06:14:25;;;;;;;11.10;2.75;;;6.20;99.90;;;;;;5188182;22;20496;-74
2022/02/23 06:16:27;;;;;;;11.15;2.72;;;6.10;99.90;;;;;;5187178;22;20453;-74
2022/02/23 06:18:28;;;;;;;10.48;2.63;;;6.10;99.90;;;;;;5160655;23;20012;-74
2022/02/23 06:20:29;;;;;;;8.90;2.88;;;6.10;99.90;;;;;;5159876;23;20167;-74
2022/02/23 06:22:29;;;;;;;8.13;2.75;;;6.10;99.90;;;;;;5186003;22;20004;-74
2022/02/23 06:24:30;;;;;;;8.80;3.03;;;6.10;99.90;;;;;;5187637;22;20438;-74
2022/02/23 06:26:31;;;;;;;11.07;3.45;;;6.10;99.90;;;;;;5186633;22;20406;-74
2022/02/23 06:28:32;;;;;;;13.48;3.15;;;6.10;99.90;;;;;;5160129;23;20461;-74
2022/02/23 06:30:33;;;;;;;10.45;2.78;;;6.10;99.90;;;;;;5187113;22;20027;-74
2022/02/23 06:32:33;;;;;;;8.23;2.97;;;6.10;99.90;;;;;;5134670;23;20013;-74
2022/02/23 06:34:36;;;;;;;12.52;2.85;;;6.10;99.90;;;;;;5187131;22;20023;-74
2022/02/23 06:36:36;;;;;;;11.30;2.80;;;6.10;99.90;;;;;;5186721;22;20062;-74
2022/02/23 06:38:40;;;;;;;13.95;3.42;;;6.10;99.90;;;;;;5186979;22;20015;-74
2022/02/23 06:40:41;;;;;;;11.52;3.75;;;6.00;99.90;;;;;;5186005;22;20318;-74
2022/02/23 06:42:42;;;;;;;15.55;5.35;;;6.00;99.90;;;;;;5187408;22;20015;-74
2022/02/23 06:44:43;;;;;;;11.52;4.43;;;6.10;99.90;;;;;;5187512;22;20023;-74
2022/02/23 06:46:44;;;;;;;17.77;4.43;;;6.10;99.90;;;;;;5135700;23;20027;-74
2022/02/23 06:48:45;;;;;;;7.65;3.08;;;6.00;99.90;;;;;;5190578;22;20035;-74
2022/02/23 06:50:46;;;;;;;10.77;3.25;;;6.00;99.90;;;;;;5161478;23;20012;-74
2022/02/23 06:52:47;;;;;;;9.40;3.05;;;6.00;99.90;;;;;;5189049;22;20071;-74
2022/02/23 06:54:49;;;;;;;9.98;3.10;;;6.00;99.90;;;;;;5189906;22;20016;-74
2022/02/23 06:56:49;;;;;;;10.20;3.22;;;6.00;99.90;;;;;;5160877;23;20489;-74
2022/02/23 06:58:50;;;;;;;9.65;3.03;;;5.90;99.90;;;;;;5187024;22;20011;-73
2022/02/23 07:00:51;;;;;;;10.80;3.08;;;5.90;99.90;;;;;;5189396;22;20020;-74
2022/02/23 07:02:55;;;;;;;11.55;3.25;;;5.90;99.90;;;;;;5189542;22;20012;-74
2022/02/23 07:04:56;;;;;;;10.18;2.90;;;5.90;99.90;;;;;;5190195;22;20369;-74
2022/02/23 07:06:56;;;;;;;11.48;2.83;;;5.90;99.90;;;;;;5160063;23;20016;-74
2022/02/23 07:08:57;;;;;;;12.20;2.83;;;5.90;99.90;;;;;;5189170;22;20069;-74
2022/02/23 07:10:57;;;;;;;10.27;3.40;;;5.90;99.90;;;;;;5187687;22;20077;-74
2022/02/23 07:13:00;;;;;;;12.95;3.53;;;5.90;99.90;;;;;;5189391;22;20015;-74
2022/02/23 07:15:01;;;;;;;7.45;2.67;;;5.90;99.90;;;;;;5188896;22;20012;-74
2022/02/23 07:17:01;;;;;;;13.00;3.42;;;5.90;99.90;;;;;;5160237;23;20011;-74
2022/02/23 07:19:02;;;;;;;11.43;3.13;;;5.90;99.90;;;;;;5189467;22;20012;-74
2022/02/23 07:21:03;;;;;;;7.57;2.75;;;5.90;99.90;;;;;;5160824;23;20473;-74
2022/02/23 07:23:04;;;;;;;10.18;3.03;;;6.00;99.90;;;;;;5161754;23;20338;-74
2022/02/23 07:25:06;;;;;;;14.45;3.53;;;6.00;99.90;;;;;;5188743;22;20532;-74
2022/02/23 07:27:12;;;;;;;11.70;3.40;;;6.00;99.90;;;;;;5187743;22;20090;-74
2022/02/23 07:29:13;;;;;;;11.20;3.50;;;6.00;99.90;;;;;;5188354;22;20022;-74
2022/02/23 07:31:17;;;;;;;15.18;3.83;;;6.00;99.90;;;;;;5160858;23;20012;-73
2022/02/23 07:33:18;;;;;;;13.77;3.95;;;6.10;99.90;;;;;;5161293;23;20382;-74
2022/02/23 07:35:19;;;;;;;14.63;4.13;;;6.20;99.90;;;;;;5161046;23;20087;-73
2022/02/23 07:37:19;;;;;;;13.80;3.92;;;6.40;99.90;;;;;;5189604;22;20007;-74
2022/02/23 07:39:20;;;;;;;16.55;4.22;;;6.50;99.90;;;;;;5161970;23;20012;-74
2022/02/23 07:41:25;;;;;;;8.63;3.53;;;6.80;99.90;;;;;;5188688;22;20020;-73
2022/02/23 07:43:25;;;;;;;13.45;3.53;;;7.10;99.90;;;;;;5189494;22;20013;-74
2022/02/23 07:45:27;;;;;;;15.18;3.75;;;7.40;99.90;;;;;;5159525;23;20410;-74
2022/02/23 07:47:27;;;;;;;11.38;3.17;;;7.60;99.90;;;;;;5158569;23;20081;-73
2022/02/23 07:49:28;;;;;;;8.48;3.03;;;8.00;99.90;;;;;;5187597;22;20012;-74
2022/02/23 07:51:29;;;;;;;17.55;4.13;;;8.20;99.90;;;;;;5186725;22;20456;-74
2022/02/23 07:53:31;;;;;;;18.17;4.15;;;8.50;99.90;;;;;;5187627;22;20016;-74
2022/02/23 07:55:32;;;;;;;12.23;4.47;;;8.60;99.90;;;;;;5186547;22;20008;-74
2022/02/23 07:57:32;;;;;;;9.82;3.42;;;8.80;99.90;;;;;;5186746;22;20477;-74
2022/02/23 07:59:33;;;;;;;10.82;3.78;;;9.10;99.90;;;;;;5187042;22;20004;-74
2022/02/23 08:01:37;;;;;;;15.93;4.45;;;9.20;99.90;;;;;;5159225;23;20294;-75
2022/02/23 08:03:41;;;;;;;11.73;3.97;;;9.50;99.90;;;;;;5135366;23;20008;-74
2022/02/23 08:05:45;;;;;;;11.73;4.43;;;9.70;99.90;;;;;;5158860;23;20004;-74
2022/02/23 08:07:46;;;;;;;12.32;4.93;;;9.90;99.90;;;;;;5185091;22;20039;-75
2022/02/23 08:09:47;;;;;;;10.13;4.40;;;10.20;99.90;;;;;;5160760;23;20011;-74
2022/02/23 08:11:48;;;;;;;12.05;4.25;;;10.40;99.90;;;;;;5187920;22;20023;-74
2022/02/23 08:13:49;;;;;;;14.45;4.50;;;10.60;99.90;;;;;;5188742;22;20008;-74
2022/02/23 08:20:28;;;;;;;10.50;4.03;;;11.00;99.90;;;;;;5185897;22;20445;-74
2022/02/23 08:22:29;;;;;;;11.02;3.88;;;11.20;99.90;;;;;;5187421;22;20087;-74
2022/02/23 08:24:33;;;;;;;11.55;4.00;;;11.50;99.90;;;;;;5188036;22;20016;-74
2022/02/23 08:26:33;;;;;;;8.52;3.42;;;11.70;99.90;;;;;;5159765;23;20013;-75
2022/02/23 08:28:35;;;;;;;14.88;4.25;;;11.90;99.90;;;;;;5160406;23;20059;-74
2022/02/23 08:30:35;;;;;;;14.60;3.95;;;11.90;99.90;;;;;;5186473;22;20154;-75
2022/02/23 08:32:36;;;;;;;12.85;4.10;;;12.00;99.90;;;;;;5187483;22;20310;-74
2022/02/23 08:34:38;;;;;;;9.80;3.63;;;12.00;99.90;;;;;;5160780;23;20015;-74
2022/02/23 08:36:38;;;;;;;16.33;4.10;;;12.00;99.90;;;;;;5159620;23;20020;-74
2022/02/23 08:38:41;;;;;;;12.10;4.75;;;12.20;99.90;;;;;;5160408;23;20004;-74
2022/02/23 08:40:43;;;;;;;10.05;3.78;;;12.40;99.90;;;;;;5134530;23;20017;-74
2022/02/23 08:42:44;;;;;;;14.13;4.10;;;12.60;99.90;;;;;;5187450;22;20039;-74
2022/02/23 08:44:45;;;;;;;12.43;4.38;;;12.80;99.90;;;;;;5141478;22;1060471;-74
2022/02/23 08:46:46;;;;;;;11.77;3.97;;;12.90;99.90;;;;;;5187559;22;20015;-74
2022/02/23 08:48:47;;;;;;;14.88;4.38;;;12.90;99.90;;;;;;5161769;23;20016;-74
2022/02/23 08:50:47;;;;;;;12.63;4.03;;;13.00;99.90;;;;;;5189340;22;20023;-74
2022/02/23 08:52:48;;;;;;;14.70;4.53;;;13.00;99.90;;;;;;5189561;22;20330;-74
2022/02/23 08:54:48;;;;;;;10.25;3.25;;;13.10;99.90;;;;;;5184804;22;20447;-74
2022/02/23 08:59:06;;;;;;;11.10;4.30;;;13.10;99.90;;;;;;5145718;22;20028;-63
2022/02/23 09:01:07;;;;;;;8.88;3.78;;;13.10;99.90;;;;;;5161310;22;20016;-63
2022/02/23 09:03:08;;;;;;;9.15;3.25;;;13.20;99.90;;;;;;5161915;22;20012;-63
2022/02/23 09:05:08;;;;;;;10.00;3.88;;;13.20;99.90;;;;;;5160608;22;20317;-64
2022/02/23 09:07:10;;;;;;;11.95;4.07;;;13.10;99.90;;;;;;5160712;22;20016;-63
2022/02/23 09:09:11;;;;;;;10.88;3.53;;;13.10;99.90;;;;;;5160830;22;20008;-63
2022/02/23 09:11:13;;;;;;;16.95;4.50;;;13.20;99.90;;;;;;5160975;22;20016;-63
2022/02/23 09:13:13;;;;;;;12.75;4.38;;;13.20;99.90;;;;;;5159197;23;20011;-63
2022/02/23 09:15:14;;;;;;;12.10;4.13;;;13.10;99.90;;;;;;5160385;22;20110;-63
2022/02/23 09:17:15;;;;;;;10.88;3.65;;;13.10;99.90;;;;;;5159614;23;20055;-63
2022/02/23 09:19:16;;;;;;;12.27;3.83;;;13.10;99.90;;;;;;5161525;22;20016;-63
2022/02/23 09:21:17;;;;;;;9.45;3.53;;;13.00;99.90;;;;;;5162573;22;20431;-63
2022/02/23 09:23:19;;;;;;;10.65;4.15;;;12.90;99.90;;;;;;5162895;22;20078;-63
2022/02/23 09:25:21;;;;;;;17.02;4.18;;;13.00;99.90;;;;;;5161987;22;20023;-63
2022/02/23 09:27:21;;;;;;;12.45;4.35;;;12.90;99.90;;;;;;5162873;22;20020;-63
2022/02/23 09:29:22;;;;;;;12.40;4.10;;;12.80;99.90;;;;;;5162919;22;20101;-63
2022/02/23 09:31:23;;;;;;;11.85;3.53;;;12.80;99.90;;;;;;5160835;22;20009;-63
2022/02/23 09:33:24;;;;;;;12.85;3.90;;;12.80;99.90;;;;;;5162703;22;20124;-63
2022/02/23 09:35:25;;;;;;;11.25;3.72;;;12.80;99.90;;;;;;5161523;22;20023;-63
2022/02/23 09:37:26;;;;;;;9.68;3.20;;;12.70;99.90;;;;;;5162214;22;20020;-63
2022/02/23 09:39:26;;;;;;;15.32;4.07;;;12.70;99.90;;;;;;5161386;22;20444;-63
2022/02/23 09:41:27;;;;;;;13.45;3.85;;;12.70;99.90;;;;;;5160893;22;20008;-63
2022/02/23 09:43:28;;;;;;;10.48;3.97;;;12.60;99.90;;;;;;5161818;22;20054;-63
2022/02/23 09:45:29;;;;;;;11.43;3.90;;;12.70;99.90;;;;;;5160625;22;20020;-63
2022/02/23 09:47:32;;;;;;;13.82;4.35;;;12.50;99.90;;;;;;5162124;22;20012;-63
2022/02/23 09:49:34;;;;;;;9.10;3.70;;;12.40;99.90;;;;;;5161845;22;20070;-63
2022/02/23 09:51:35;;;;;;;18.77;4.55;;;12.40;99.90;;;;;;5161000;22;20098;-63
2022/02/23 09:53:38;;;;;;;13.13;4.25;;;12.30;99.90;;;;;;5161225;22;20013;-62
2022/02/23 09:55:38;;;;;;;;;;;12.20;99.90;;;;;;5158733;23;20032;-63
2022/02/23 09:57:39;;;;;;;12.20;4.03;;;12.30;99.90;;;;;;5161364;22;20383;-63
2022/02/23 09:59:40;;;;;;;13.90;3.85;;;12.30;99.90;;;;;;5160683;22;20098;-63
2022/02/23 10:01:41;;;;;;;13.65;4.35;;;12.30;99.90;;;;;;5159286;22;20016;-63
2022/02/23 10:03:44;;;;;;;10.95;3.58;;;12.20;99.90;;;;;;5159458;22;20015;-64
2022/02/23 10:05:45;;;;;;;9.65;3.92;;;12.20;99.90;;;;;;5158919;22;20070;-63
2022/02/23 10:07:46;;;;;;;12.25;4.15;;;12.20;99.90;;;;;;5160193;22;20514;-63
2022/02/23 10:09:49;;;;;;;14.85;4.03;;;12.30;99.90;;;;;;5160638;22;20039;-63
2022/02/23 10:11:50;;;;;;;12.93;4.05;;;12.30;99.90;;;;;;5158165;23;20030;-63
2022/02/23 10:13:51;;;;;;;15.27;4.18;;;12.30;99.90;;;;;;5161371;22;20013;-63
2022/02/23 10:15:53;;;;;;;17.40;4.18;;;12.20;99.90;;;;;;5161975;22;20440;-63
2022/02/23 10:17:53;;;;;;;12.50;3.60;;;12.20;99.90;;;;;;5159442;23;20284;-63
2022/02/23 10:19:56;;;;;;;12.35;3.67;;;12.20;99.90;;;;;;5162301;22;20036;-63
2022/02/23 10:21:59;;;;;;;13.85;3.65;;;12.20;99.90;;;;;;5158525;23;20016;-63
2022/02/23 10:24:18;;;;;;;;;;;12.30;99.90;;;;;;5162395;22;20038;-63
2022/02/23 10:26:30;;;;;;;13.05;3.80;;;12.30;99.90;;;;;;5159760;22;20224;-63
2022/02/23 10:28:32;;;;;;;10.95;2.92;;;12.30;99.90;;;;;;5161870;22;20440;-63
2022/02/23 10:30:33;;;;;;;;;;;12.30;99.90;;;;;;5161639;22;20447;-63
2022/02/23 10:32:34;;;;;;;13.20;3.65;;;12.30;99.90;;;;;;5161237;22;19903;-63
2022/02/23 10:34:43;;;;;;;9.57;2.83;;;12.40;99.90;;;;;;5161660;22;20009;-63
2022/02/23 10:37:03;;;;;;;10.05;3.15;;;12.40;99.90;;;;;;5159903;22;20440;-64
2022/02/23 10:39:10;;;;;;;9.63;2.83;;;12.40;99.90;;;;;;5160811;22;20004;-63